Time;durP1;ratioP1;P1;durP2;ratioP2;P2;SDS_P1;SDS_P2;PMS_P1;PMS_P2;Temp;Humidity;BMP_temperature;BMP_pressure;BME280_temperature;BME280_humidity;BME280_pressure;Samples;Min_cycle;Max_cycle;Signal;HPM_P1;HPM_P2
2021/08/11 00:00:58;;;;;;;4.30;4.00;;;;;;;;;;4990282;28;25036;-53
2021/08/11 00:03:23;;;;;;;4.80;4.40;;;;;;;;;;4989509;28;24433;-53
2021/08/11 00:05:48;;;;;;;4.35;4.05;;;;;;;;;;4989861;28;24475;-53
2021/08/11 00:08:14;;;;;;;3.90;3.60;;;;;;;;;;4987309;28;24429;-53
2021/08/11 00:10:39;;;;;;;4.87;4.47;;;;;;;;;;4988636;28;24455;-52
2021/08/11 00:13:05;;;;;;;4.50;4.10;;;;;;;;;;4987906;28;24502;-53
2021/08/11 00:15:30;;;;;;;4.10;3.80;;;;;;;;;;4989838;28;24436;-53
2021/08/11 00:17:55;;;;;;;5.00;4.50;;;;;;;;;;4989564;28;24784;-52
2021/08/11 00:20:22;;;;;;;5.00;4.60;;;;;;;;;;4989529;28;24475;-52
2021/08/11 00:22:47;;;;;;;4.60;4.20;;;;;;;;;;4987854;28;24520;-52
2021/08/11 00:25:12;;;;;;;4.80;4.40;;;;;;;;;;4989622;28;24611;-51
2021/08/11 00:27:37;;;;;;;4.97;4.57;;;;;;;;;;4989872;28;24958;-52
2021/08/11 00:30:03;;;;;;;4.90;4.40;;;;;;;;;;4989263;28;25033;-51
2021/08/11 00:32:28;;;;;;;4.80;4.40;;;;;;;;;;4989693;28;24448;-52
2021/08/11 00:34:54;;;;;;;4.77;4.37;;;;;;;;;;4989017;28;24828;-52
2021/08/11 00:37:19;;;;;;;5.20;4.70;;;;;;;;;;4989328;28;24441;-52
2021/08/11 00:39:45;;;;;;;4.07;3.78;;;;;;;;;;4988916;28;24419;-53
2021/08/11 00:42:10;;;;;;;4.82;4.43;;;;;;;;;;4989775;28;24777;-53
2021/08/11 00:44:35;;;;;;;4.80;4.40;;;;;;;;;;4989532;28;24424;-52
2021/08/11 00:47:03;;;;;;;5.70;5.20;;;;;;;;;;4989069;28;24548;-52
2021/08/11 00:49:28;;;;;;;4.90;4.50;;;;;;;;;;4992676;28;24710;-53
2021/08/11 00:51:53;;;;;;;5.20;4.80;;;;;;;;;;4985500;28;24417;-53
2021/08/11 00:54:19;;;;;;;4.90;4.40;;;;;;;;;;4989049;28;24540;-53
2021/08/11 00:56:46;;;;;;;4.60;4.20;;;;;;;;;;4988949;28;24429;-52
2021/08/11 00:59:12;;;;;;;4.70;4.30;;;;;;;;;;4988969;28;24496;-52
2021/08/11 01:01:39;;;;;;;4.63;4.22;;;;;;;;;;4989285;28;24409;-53
2021/08/11 01:04:04;;;;;;;4.80;4.30;;;;;;;;;;4982883;28;24417;-52
2021/08/11 01:06:30;;;;;;;4.40;4.00;;;;;;;;;;4988422;28;24468;-52
2021/08/11 01:08:55;;;;;;;4.60;4.20;;;;;;;;;;4989473;28;24425;-52
2021/08/11 01:11:21;;;;;;;4.30;3.90;;;;;;;;;;4989095;28;25191;-52
2021/08/11 01:13:46;;;;;;;4.50;4.10;;;;;;;;;;4988539;28;24435;-52
2021/08/11 01:16:12;;;;;;;4.30;4.00;;;;;;;;;;4988484;28;24428;-52
2021/08/11 01:18:37;;;;;;;4.27;3.97;;;;;;;;;;4988957;28;24886;-53
2021/08/11 01:21:06;;;;;;;4.30;4.00;;;;;;;;;;4988878;28;26339;-53
2021/08/11 01:23:43;;;;;;;4.57;4.22;;;;;;;;;;4988586;28;24485;-53
2021/08/11 01:26:16;;;;;;;4.82;4.43;;;;;;;;;;4988000;28;24428;-53
2021/08/11 01:28:43;;;;;;;4.07;3.78;;;;;;;;;;4987708;28;24988;-53
2021/08/11 01:31:15;;;;;;;4.60;4.20;;;;;;;;;;4988339;28;24413;-53
2021/08/11 01:33:50;;;;;;;4.30;4.00;;;;;;;;;;4988346;28;24452;-53
2021/08/11 01:36:15;;;;;;;4.60;4.20;;;;;;;;;;4988442;28;24423;-53
2021/08/11 01:38:44;;;;;;;4.70;4.30;;;;;;;;;;4988633;28;24512;-54
2021/08/11 01:41:10;;;;;;;4.35;4.05;;;;;;;;;;4988422;28;24428;-51
2021/08/11 01:43:37;;;;;;;4.72;4.32;;;;;;;;;;4988494;28;24893;-50
2021/08/11 01:46:04;;;;;;;4.80;4.40;;;;;;;;;;4988020;28;24448;-51
2021/08/11 01:48:30;;;;;;;3.97;3.67;;;;;;;;;;4988434;28;24428;-51
2021/08/11 01:50:56;;;;;;;4.20;3.90;;;;;;;;;;4988223;28;24429;-51
2021/08/11 01:53:22;;;;;;;3.88;3.63;;;;;;;;;;4988070;28;24453;-52
2021/08/11 01:55:49;;;;;;;4.55;4.20;;;;;;;;;;4988017;28;24945;-52
2021/08/11 01:58:14;;;;;;;4.07;3.78;;;;;;;;;;4988039;28;24425;-51
2021/08/11 02:00:40;;;;;;;4.50;4.20;;;;;;;;;;4987574;28;24425;-51
2021/08/11 02:03:05;;;;;;;4.38;4.07;;;;;;;;;;4988415;28;24982;-51
2021/08/11 02:05:31;;;;;;;4.10;3.80;;;;;;;;;;4987885;28;25201;-51
2021/08/11 02:07:57;;;;;;;4.20;3.90;;;;;;;;;;4988668;28;24848;-50
2021/08/11 02:10:22;;;;;;;4.20;3.90;;;;;;;;;;4987755;28;24432;-51
2021/08/11 02:12:47;;;;;;;4.00;3.70;;;;;;;;;;4987426;28;24425;-51
2021/08/11 02:15:13;;;;;;;4.30;4.00;;;;;;;;;;4987709;28;24971;-51
2021/08/11 02:17:38;;;;;;;4.05;3.75;;;;;;;;;;4987862;28;24520;-50
2021/08/11 02:20:07;;;;;;;4.50;4.10;;;;;;;;;;4987425;28;24783;-50
2021/08/11 02:22:33;;;;;;;4.35;4.05;;;;;;;;;;4987615;28;24504;-51
2021/08/11 02:24:58;;;;;;;4.30;4.00;;;;;;;;;;4988345;28;24849;-50
2021/08/11 02:27:26;;;;;;;4.70;4.30;;;;;;;;;;4987762;28;24424;-50
2021/08/11 02:29:58;;;;;;;4.50;4.20;;;;;;;;;;4987699;28;24456;-51
2021/08/11 02:32:26;;;;;;;4.40;4.00;;;;;;;;;;4987782;28;25405;-51
2021/08/11 02:35:10;;;;;;;4.65;4.25;;;;;;;;;;4987347;28;24425;-51
2021/08/11 02:37:45;;;;;;;4.80;4.40;;;;;;;;;;4987436;28;25074;-51
2021/08/11 02:40:15;;;;;;;5.20;4.00;;;;;;;;;;4982203;28;24420;-51
2021/08/11 02:42:43;;;;;;;4.80;4.40;;;;;;;;;;4987147;28;24501;-51
2021/08/11 02:45:11;;;;;;;4.50;4.20;;;;;;;;;;4981758;28;24500;-52
2021/08/11 02:47:37;;;;;;;4.90;4.50;;;;;;;;;;4987380;28;24424;-51
2021/08/11 02:50:03;;;;;;;4.90;4.50;;;;;;;;;;4987845;28;24843;-51
2021/08/11 02:52:29;;;;;;;4.10;3.80;;;;;;;;;;4987086;28;25002;-50
2021/08/11 02:54:55;;;;;;;4.70;4.30;;;;;;;;;;4986900;28;24421;-50
2021/08/11 02:57:20;;;;;;;4.47;4.18;;;;;;;;;;4987386;28;24468;-50
2021/08/11 02:59:46;;;;;;;4.22;3.92;;;;;;;;;;4987101;28;24471;-50
2021/08/11 03:02:12;;;;;;;4.65;4.25;;;;;;;;;;4987444;28;24995;-51
2021/08/11 03:04:37;;;;;;;5.07;4.40;;;;;;;;;;4987282;28;24409;-51
2021/08/11 03:07:02;;;;;;;4.60;4.20;;;;;;;;;;4986792;28;24435;-50
2021/08/11 03:09:28;;;;;;;4.73;4.40;;;;;;;;;;4987424;28;24500;-51
2021/08/11 03:11:53;;;;;;;4.90;4.60;;;;;;;;;;4987143;28;24779;-51
2021/08/11 03:14:19;;;;;;;4.57;4.17;;;;;;;;;;4987258;28;24532;-51
2021/08/11 03:16:44;;;;;;;4.60;4.30;;;;;;;;;;4987534;28;24491;-51
2021/08/11 03:19:09;;;;;;;4.93;4.60;;;;;;;;;;4969221;28;24849;-52
2021/08/11 03:21:35;;;;;;;5.60;5.20;;;;;;;;;;4987366;28;24472;-50
2021/08/11 03:24:00;;;;;;;5.28;4.85;;;;;;;;;;4987199;28;24514;-51
2021/08/11 03:26:25;;;;;;;5.50;5.10;;;;;;;;;;4990507;28;24417;-52
2021/08/11 03:28:51;;;;;;;5.10;4.70;;;;;;;;;;4990328;28;25038;-51
2021/08/11 03:31:16;;;;;;;5.10;4.70;;;;;;;;;;4990652;28;24416;-51
2021/08/11 03:33:41;;;;;;;5.20;4.67;;;;;;;;;;4990328;28;24491;-52
2021/08/11 03:36:06;;;;;;;4.97;4.57;;;;;;;;;;4990711;28;25044;-50
2021/08/11 03:38:31;;;;;;;5.57;5.17;;;;;;;;;;4989581;28;24988;-51
2021/08/11 03:40:56;;;;;;;5.40;4.90;;;;;;;;;;4990971;28;24487;-51
2021/08/11 03:43:21;;;;;;;5.10;4.70;;;;;;;;;;4989876;28;24428;-50
2021/08/11 03:45:48;;;;;;;5.10;4.70;;;;;;;;;;4990342;28;25060;-51
2021/08/11 03:48:13;;;;;;;6.22;5.72;;;;;;;;;;4990674;28;24405;-51
2021/08/11 03:50:38;;;;;;;6.20;5.70;;;;;;;;;;4989513;28;24592;-51
2021/08/11 03:53:03;;;;;;;5.88;5.38;;;;;;;;;;4990033;28;24521;-51
2021/08/11 03:55:32;;;;;;;5.80;5.30;;;;;;;;;;4989384;28;24481;-50
2021/08/11 03:58:00;;;;;;;5.57;5.17;;;;;;;;;;4985400;28;24425;-51
2021/08/11 04:00:26;;;;;;;5.65;5.20;;;;;;;;;;4989796;28;24552;-51
2021/08/11 04:02:51;;;;;;;5.30;4.90;;;;;;;;;;4989531;28;24898;-52
2021/08/11 04:05:16;;;;;;;5.25;4.85;;;;;;;;;;4990091;28;24413;-52
2021/08/11 04:07:41;;;;;;;4.57;4.17;;;;;;;;;;4990207;28;24852;-51
2021/08/11 04:10:07;;;;;;;4.40;4.00;;;;;;;;;;4989946;28;25013;-51
2021/08/11 04:12:33;;;;;;;4.70;4.30;;;;;;;;;;4989894;28;24444;-51
2021/08/11 04:14:58;;;;;;;5.33;4.93;;;;;;;;;;4989707;28;24820;-52
2021/08/11 04:17:23;;;;;;;5.27;4.87;;;;;;;;;;4988850;28;24435;-50
2021/08/11 04:19:48;;;;;;;5.70;5.20;;;;;;;;;;4988888;28;24616;-52
2021/08/11 04:22:13;;;;;;;5.40;4.90;;;;;;;;;;4989820;28;24452;-51
2021/08/11 04:24:38;;;;;;;5.80;5.20;;;;;;;;;;4989142;28;24452;-51
2021/08/11 04:27:04;;;;;;;5.50;5.10;;;;;;;;;;4989626;28;24479;-51
2021/08/11 04:29:29;;;;;;;5.50;5.00;;;;;;;;;;4989153;28;24756;-52
2021/08/11 04:31:54;;;;;;;5.13;4.72;;;;;;;;;;4985965;28;24785;-52
2021/08/11 04:34:19;;;;;;;4.03;3.73;;;;;;;;;;4988535;28;24487;-51
2021/08/11 04:36:44;;;;;;;4.17;3.87;;;;;;;;;;4987982;28;24961;-51
2021/08/11 04:39:09;;;;;;;4.95;4.50;;;;;;;;;;4989817;28;24475;-51
2021/08/11 04:41:35;;;;;;;3.80;3.50;;;;;;;;;;4990012;28;24427;-51
2021/08/11 04:44:00;;;;;;;3.60;3.30;;;;;;;;;;4989631;28;24965;-51
2021/08/11 04:46:25;;;;;;;2.90;2.70;;;;;;;;;;4989351;28;24958;-52
2021/08/11 04:48:50;;;;;;;3.53;3.33;;;;;;;;;;4988848;28;25038;-52
2021/08/11 04:51:15;;;;;;;3.50;3.20;;;;;;;;;;4989578;28;24955;-53
2021/08/11 04:53:40;;;;;;;4.83;4.43;;;;;;;;;;4988624;28;24810;-51
2021/08/11 04:56:06;;;;;;;4.10;3.80;;;;;;;;;;4989211;28;24823;-51
2021/08/11 04:58:31;;;;;;;3.17;2.97;;;;;;;;;;4996547;28;24953;-51
2021/08/11 05:00:56;;;;;;;4.15;3.85;;;;;;;;;;4989074;28;24954;-51
2021/08/11 05:03:21;;;;;;;4.13;3.83;;;;;;;;;;4988667;28;24978;-51
2021/08/11 05:05:46;;;;;;;4.85;4.10;;;;;;;;;;4988822;28;24421;-52
2021/08/11 05:08:11;;;;;;;3.10;2.90;;;;;;;;;;4988893;28;24417;-52
2021/08/11 05:10:36;;;;;;;3.78;3.47;;;;;;;;;;4987902;28;24448;-52
2021/08/11 05:13:02;;;;;;;3.30;3.10;;;;;;;;;;4988355;28;24437;-52
2021/08/11 05:15:27;;;;;;;3.80;3.50;;;;;;;;;;4989123;28;24900;-53
2021/08/11 05:17:52;;;;;;;4.20;3.90;;;;;;;;;;4983965;28;24465;-52
2021/08/11 05:20:19;;;;;;;5.57;4.60;;;;;;;;;;4987972;28;24493;-53
2021/08/11 05:22:44;;;;;;;4.45;4.05;;;;;;;;;;4987433;28;24499;-52
2021/08/11 05:25:10;;;;;;;5.35;3.75;;;;;;;;;;4989073;28;24568;-52
2021/08/11 05:27:35;;;;;;;4.00;3.40;;;;;;;;;;4988758;28;24400;-52
2021/08/11 05:30:01;;;;;;;3.80;3.50;;;;;;;;;;4989043;28;24420;-52
2021/08/11 05:32:26;;;;;;;3.55;3.15;;;;;;;;;;4987513;28;24443;-51
2021/08/11 05:34:51;;;;;;;4.10;3.63;;;;;;;;;;4988371;28;24484;-52
2021/08/11 05:37:16;;;;;;;3.70;3.40;;;;;;;;;;4988390;28;24409;-52
2021/08/11 05:39:41;;;;;;;4.13;3.72;;;;;;;;;;4988557;28;24974;-53
2021/08/11 05:42:06;;;;;;;4.10;3.80;;;;;;;;;;4988801;28;24491;-52
2021/08/11 05:44:32;;;;;;;3.77;3.47;;;;;;;;;;4988269;28;24967;-53
2021/08/11 05:46:57;;;;;;;4.45;4.05;;;;;;;;;;4983056;28;24505;-53
2021/08/11 05:49:22;;;;;;;3.70;3.40;;;;;;;;;;4983118;28;24820;-53
2021/08/11 05:51:48;;;;;;;4.10;3.70;;;;;;;;;;4986995;28;24422;-53
2021/08/11 05:54:13;;;;;;;5.30;3.90;;;;;;;;;;4980644;28;24449;-53
2021/08/11 05:56:38;;;;;;;4.20;3.80;;;;;;;;;;4981286;28;24447;-54
2021/08/11 05:59:03;;;;;;;3.95;3.65;;;;;;;;;;4984350;28;24848;-54
2021/08/11 06:01:28;;;;;;;3.80;3.50;;;;;;;;;;4984333;28;24416;-53
2021/08/11 06:03:54;;;;;;;3.87;3.47;;;;;;;;;;4984111;28;24424;-53
2021/08/11 06:06:20;;;;;;;4.07;3.67;;;;;;;;;;4984379;28;24483;-53
2021/08/11 06:08:45;;;;;;;4.17;3.77;;;;;;;;;;4983507;28;24437;-54
2021/08/11 06:11:10;;;;;;;4.27;3.87;;;;;;;;;;4981380;28;24519;-53
2021/08/11 06:13:35;;;;;;;3.50;3.20;;;;;;;;;;4983531;28;24501;-53
2021/08/11 06:16:00;;;;;;;3.80;3.50;;;;;;;;;;4982488;28;24776;-54
2021/08/11 06:18:25;;;;;;;4.10;3.70;;;;;;;;;;4980239;28;24453;-54
2021/08/11 06:20:52;;;;;;;4.30;3.90;;;;;;;;;;4983289;28;24432;-54
2021/08/11 06:23:17;;;;;;;4.00;3.60;;;;;;;;;;4984073;28;24495;-54
2021/08/11 06:25:42;;;;;;;3.60;3.40;;;;;;;;;;4982482;28;24523;-53
2021/08/11 06:28:08;;;;;;;3.78;3.38;;;;;;;;;;4982987;28;25012;-54
2021/08/11 06:30:33;;;;;;;3.70;3.40;;;;;;;;;;4983059;28;24421;-53
2021/08/11 06:32:58;;;;;;;4.07;3.60;;;;;;;;;;4980115;28;24477;-53
2021/08/11 06:35:23;;;;;;;3.75;3.45;;;;;;;;;;4984254;28;24776;-52
2021/08/11 06:37:49;;;;;;;3.70;3.40;;;;;;;;;;4983785;28;24428;-49
2021/08/11 06:40:15;;;;;;;4.30;3.90;;;;;;;;;;4983432;28;24417;-50
2021/08/11 06:42:40;;;;;;;4.15;3.67;;;;;;;;;;4983247;28;24413;-53
2021/08/11 06:45:06;;;;;;;5.47;3.60;;;;;;;;;;4983631;28;25294;-52
2021/08/11 06:47:31;;;;;;;3.90;3.60;;;;;;;;;;4983538;28;24432;-50
2021/08/11 06:49:56;;;;;;;4.50;3.80;;;;;;;;;;4972611;28;25272;-52
2021/08/11 06:52:22;;;;;;;4.80;4.40;;;;;;;;;;4975469;28;24429;-51
2021/08/11 06:54:47;;;;;;;3.90;3.50;;;;;;;;;;4979397;28;24432;-51
2021/08/11 06:57:12;;;;;;;3.80;3.50;;;;;;;;;;4987352;28;24417;-52
2021/08/11 06:59:37;;;;;;;3.00;2.70;;;;;;;;;;4987667;28;24457;-51
2021/08/11 07:02:02;;;;;;;4.00;3.70;;;;;;;;;;4988185;28;24428;-50
2021/08/11 07:04:27;;;;;;;4.07;3.77;;;;;;;;;;4989230;28;24768;-51
2021/08/11 07:06:54;;;;;;;5.60;3.75;;;;;;;;;;4990606;28;24424;-51
2021/08/11 07:09:22;;;;;;;3.42;2.95;;;;;;;;;;4990515;28;24455;-52
2021/08/11 07:11:47;;;;;;;3.65;3.35;;;;;;;;;;4990566;28;24978;-50
2021/08/11 07:14:12;;;;;;;3.90;3.60;;;;;;;;;;4990649;28;24437;-49
2021/08/11 07:16:38;;;;;;;4.00;3.60;;;;;;;;;;4991383;28;24842;-50
2021/08/11 07:19:03;;;;;;;4.60;3.60;;;;;;;;;;5003232;28;24436;-51
2021/08/11 07:21:28;;;;;;;3.85;3.50;;;;;;;;;;4990612;28;24421;-50
2021/08/11 07:23:53;;;;;;;3.70;3.40;;;;;;;;;;4990377;28;24483;-50
2021/08/11 07:26:20;;;;;;;3.80;3.40;;;;;;;;;;4990646;28;24417;-49
2021/08/11 07:28:45;;;;;;;3.80;3.50;;;;;;;;;;4990156;28;24436;-49
2021/08/11 07:31:10;;;;;;;4.50;4.05;;;;;;;;;;4990190;28;24977;-52
2021/08/11 07:33:35;;;;;;;3.70;3.40;;;;;;;;;;4990437;28;24456;-50
2021/08/11 07:36:00;;;;;;;4.38;3.95;;;;;;;;;;4989786;28;24499;-50
2021/08/11 07:38:25;;;;;;;4.30;3.90;;;;;;;;;;4989833;28;24895;-50
2021/08/11 07:40:50;;;;;;;3.90;3.50;;;;;;;;;;4990016;28;24409;-50
2021/08/11 07:43:16;;;;;;;3.47;3.17;;;;;;;;;;4990442;28;24499;-51
2021/08/11 07:45:41;;;;;;;3.60;3.30;;;;;;;;;;4989598;28;24785;-52
2021/08/11 07:48:06;;;;;;;3.45;3.25;;;;;;;;;;4987511;28;24563;-51
2021/08/11 07:50:32;;;;;;;3.63;3.33;;;;;;;;;;4987847;28;24436;-52
2021/08/11 07:52:57;;;;;;;4.20;3.70;;;;;;;;;;4988686;28;24492;-50
2021/08/11 07:55:23;;;;;;;3.97;3.67;;;;;;;;;;4990125;28;25310;-50
2021/08/11 07:57:48;;;;;;;3.80;3.50;;;;;;;;;;4990133;28;24417;-50
2021/08/11 08:00:14;;;;;;;3.53;3.22;;;;;;;;;;4989119;28;24498;-50
2021/08/11 08:02:39;;;;;;;3.85;3.50;;;;;;;;;;4987853;28;24792;-50
2021/08/11 08:05:05;;;;;;;4.40;3.67;;;;;;;;;;4997179;28;24451;-50
2021/08/11 08:07:30;;;;;;;3.70;3.40;;;;;;;;;;4990880;28;24511;-50
2021/08/11 08:09:56;;;;;;;3.78;3.38;;;;;;;;;;4987519;28;24524;-51
2021/08/11 08:12:21;;;;;;;3.90;3.60;;;;;;;;;;4988634;28;24420;-51
2021/08/11 08:14:46;;;;;;;3.87;3.57;;;;;;;;;;4989412;28;24460;-50
2021/08/11 08:17:11;;;;;;;4.40;4.00;;;;;;;;;;4989617;28;24483;-50
2021/08/11 08:19:37;;;;;;;4.10;3.80;;;;;;;;;;4989524;28;24401;-50
2021/08/11 08:22:02;;;;;;;3.73;3.43;;;;;;;;;;4989654;28;24393;-50
2021/08/11 08:24:29;;;;;;;4.10;3.60;;;;;;;;;;4989728;28;24931;-50
2021/08/11 08:26:54;;;;;;;4.43;4.03;;;;;;;;;;4989386;28;24420;-50
2021/08/11 08:29:19;;;;;;;4.85;3.90;;;;;;;;;;4989409;28;24440;-50
2021/08/11 08:31:45;;;;;;;5.15;4.75;;;;;;;;;;4989266;28;25002;-50
2021/08/11 08:34:10;;;;;;;3.90;3.60;;;;;;;;;;4989495;28;24421;-50
2021/08/11 08:36:35;;;;;;;3.75;3.50;;;;;;;;;;4989464;28;24436;-50
2021/08/11 08:39:00;;;;;;;4.30;4.00;;;;;;;;;;4988865;28;24497;-50
2021/08/11 08:41:26;;;;;;;4.20;3.90;;;;;;;;;;4989170;28;24413;-49
2021/08/11 08:43:51;;;;;;;3.50;3.20;;;;;;;;;;4989307;28;24460;-49
2021/08/11 08:46:17;;;;;;;3.47;3.10;;;;;;;;;;4989376;28;24694;-50
2021/08/11 08:48:42;;;;;;;4.00;3.70;;;;;;;;;;4988798;28;24459;-50
2021/08/11 08:51:11;;;;;;;4.10;3.80;;;;;;;;;;4988675;28;24803;-50
2021/08/11 08:53:37;;;;;;;3.90;3.60;;;;;;;;;;4989279;28;24437;-50
2021/08/11 08:56:02;;;;;;;4.70;3.90;;;;;;;;;;4982547;28;24907;-51
2021/08/11 08:58:27;;;;;;;4.40;4.10;;;;;;;;;;4987089;28;24417;-50
2021/08/11 09:00:52;;;;;;;4.30;3.90;;;;;;;;;;4988725;28;24440;-50
2021/08/11 09:03:17;;;;;;;4.55;4.22;;;;;;;;;;4988661;28;24397;-51
2021/08/11 09:05:43;;;;;;;4.75;4.35;;;;;;;;;;4988915;28;24400;-50
2021/08/11 09:08:08;;;;;;;4.10;3.80;;;;;;;;;;4988198;28;24417;-50
2021/08/11 09:10:36;;;;;;;4.60;4.30;;;;;;;;;;4988407;28;24512;-49
2021/08/11 09:13:08;;;;;;;3.92;3.63;;;;;;;;;;4988644;28;24468;-49
2021/08/11 09:15:38;;;;;;;4.50;4.20;;;;;;;;;;4988944;28;24393;-49
2021/08/11 09:18:29;;;;;;;4.50;4.10;;;;;;;;;;4988271;28;24413;-50
2021/08/11 09:21:02;;;;;;;5.05;4.65;;;;;;;;;;4983555;28;24994;-50
2021/08/11 09:23:35;;;;;;;4.97;4.50;;;;;;;;;;4988490;28;24768;-51
2021/08/11 09:26:01;;;;;;;4.73;4.43;;;;;;;;;;4988369;28;24420;-50
2021/08/11 09:28:28;;;;;;;4.40;4.00;;;;;;;;;;4988034;28;24444;-50
2021/08/11 09:30:53;;;;;;;4.65;4.35;;;;;;;;;;4988063;28;24401;-49
2021/08/11 09:33:23;;;;;;;5.10;4.60;;;;;;;;;;4980068;28;24469;-50
2021/08/11 09:35:48;;;;;;;4.70;4.30;;;;;;;;;;4965419;28;24400;-51
2021/08/11 09:38:14;;;;;;;5.00;4.70;;;;;;;;;;4973021;28;24489;-50
2021/08/11 09:40:40;;;;;;;4.40;4.10;;;;;;;;;;4988135;28;24416;-50
2021/08/11 09:43:06;;;;;;;4.70;4.40;;;;;;;;;;4988256;28;24494;-49
2021/08/11 09:45:46;;;;;;;4.20;3.90;;;;;;;;;;4988089;28;24424;-50
2021/08/11 09:48:12;;;;;;;4.53;4.10;;;;;;;;;;4988192;28;24750;-50
2021/08/11 09:50:39;;;;;;;4.03;3.72;;;;;;;;;;4987958;28;24584;-50
2021/08/11 09:53:05;;;;;;;4.32;4.03;;;;;;;;;;4987869;28;24539;-49
2021/08/11 09:55:30;;;;;;;4.10;3.80;;;;;;;;;;4988449;28;24385;-51
2021/08/11 09:57:55;;;;;;;3.73;3.53;;;;;;;;;;4988264;28;24484;-50
2021/08/11 10:00:20;;;;;;;3.87;3.57;;;;;;;;;;4987821;28;25059;-50
2021/08/11 10:02:46;;;;;;;3.90;3.70;;;;;;;;;;4987402;28;24491;-51
2021/08/11 10:05:31;;;;;;;4.10;3.80;;;;;;;;;;4987866;28;24773;-51
2021/08/11 10:07:56;;;;;;;3.80;3.50;;;;;;;;;;4980562;28;24895;-50
2021/08/11 10:10:21;;;;;;;4.80;4.40;;;;;;;;;;4986627;28;24440;-51
2021/08/11 10:12:49;;;;;;;4.60;4.30;;;;;;;;;;4987384;28;24453;-51
2021/08/11 10:15:15;;;;;;;3.92;3.63;;;;;;;;;;4986988;28;24420;-52
2021/08/11 10:17:41;;;;;;;3.83;3.63;;;;;;;;;;4977272;28;24507;-51
2021/08/11 10:20:06;;;;;;;5.07;4.70;;;;;;;;;;4986592;28;24851;-50
2021/08/11 10:22:32;;;;;;;5.68;5.28;;;;;;;;;;4987475;28;24413;-52
2021/08/11 10:24:57;;;;;;;5.18;4.78;;;;;;;;;;4985798;28;24455;-52
2021/08/11 10:27:23;;;;;;;4.97;4.67;;;;;;;;;;4981972;28;24413;-52
2021/08/11 10:29:50;;;;;;;5.00;4.60;;;;;;;;;;4986617;28;24417;-52
2021/08/11 10:32:15;;;;;;;5.20;4.90;;;;;;;;;;4984292;28;24421;-50
2021/08/11 10:34:42;;;;;;;7.87;7.17;;;;;;;;;;4986870;28;24420;-51
2021/08/11 10:37:08;;;;;;;9.07;8.20;;;;;;;;;;4991103;28;24409;-50
2021/08/11 10:39:33;;;;;;;6.73;6.23;;;;;;;;;;4990391;28;24519;-51
2021/08/11 10:42:01;;;;;;;4.73;4.43;;;;;;;;;;4990928;28;24410;-51
2021/08/11 10:44:27;;;;;;;5.40;5.10;;;;;;;;;;4989664;28;24512;-50
2021/08/11 10:47:00;;;;;;;6.20;5.80;;;;;;;;;;4991153;28;24505;-50
2021/08/11 10:49:29;;;;;;;6.28;5.88;;;;;;;;;;4989770;28;24428;-51
2021/08/11 10:52:13;;;;;;;5.60;5.20;;;;;;;;;;4989778;28;24425;-50
2021/08/11 10:54:48;;;;;;;5.40;5.00;;;;;;;;;;4983798;28;24832;-49
2021/08/11 10:57:13;;;;;;;5.90;5.50;;;;;;;;;;4991483;28;24424;-50
2021/08/11 10:59:40;;;;;;;6.50;6.10;;;;;;;;;;4990799;28;21246;-50
2021/08/11 11:02:25;;;;;;;6.53;6.13;;;;;;;;;;4990896;28;24409;-50
2021/08/11 11:04:51;;;;;;;6.00;5.50;;;;;;;;;;4984805;28;24444;-51
2021/08/11 11:07:16;;;;;;;6.43;5.93;;;;;;;;;;4990916;28;24421;-49
2021/08/11 11:09:45;;;;;;;6.90;6.50;;;;;;;;;;4990855;28;24520;-51
2021/08/11 11:12:16;;;;;;;7.00;6.60;;;;;;;;;;4990850;28;24483;-50
2021/08/11 11:14:57;;;;;;;6.10;5.70;;;;;;;;;;4991083;28;24417;-51
2021/08/11 11:17:35;;;;;;;6.32;5.93;;;;;;;;;;4984180;28;24409;-52
2021/08/11 11:20:07;;;;;;;6.30;5.90;;;;;;;;;;4990410;28;24811;-50
2021/08/11 11:22:35;;;;;;;6.50;6.10;;;;;;;;;;4990523;28;24413;-51
2021/08/11 11:25:01;;;;;;;6.00;5.60;;;;;;;;;;4990757;28;24556;-52
2021/08/11 11:27:56;;;;;;;6.63;6.13;;;;;;;;;;4990411;28;24504;-51
2021/08/11 11:30:27;;;;;;;6.88;6.47;;;;;;;;;;4990848;28;24385;-51
2021/08/11 11:32:52;;;;;;;6.20;5.70;;;;;;;;;;4990917;28;24417;-51
2021/08/11 11:35:18;;;;;;;6.40;6.00;;;;;;;;;;4991077;28;24397;-52
2021/08/11 11:37:44;;;;;;;5.87;5.47;;;;;;;;;;4990276;28;24413;-51
2021/08/11 11:40:11;;;;;;;6.40;6.00;;;;;;;;;;4990532;28;25017;-50
2021/08/11 11:42:36;;;;;;;5.70;5.40;;;;;;;;;;4990924;28;24412;-51
2021/08/11 11:45:13;;;;;;;6.60;6.10;;;;;;;;;;4990066;28;24610;-51
2021/08/11 11:47:42;;;;;;;6.30;5.90;;;;;;;;;;4990784;28;24404;-50
2021/08/11 11:52:58;;;;;;;6.35;5.95;;;;;;;;;;4990188;28;24425;-51
2021/08/11 11:55:30;;;;;;;6.32;5.93;;;;;;;;;;4990192;28;24788;-52
2021/08/11 11:57:56;;;;;;;6.95;6.55;;;;;;;;;;4990429;28;24445;-50
2021/08/11 12:00:21;;;;;;;6.10;5.70;;;;;;;;;;4987578;28;24992;-51
2021/08/11 12:02:51;;;;;;;6.93;6.43;;;;;;;;;;4969668;28;24422;-51
2021/08/11 12:05:16;;;;;;;6.78;6.38;;;;;;;;;;4982825;28;24417;-50
2021/08/11 12:07:41;;;;;;;7.27;6.80;;;;;;;;;;4990186;28;24420;-52
2021/08/11 12:10:06;;;;;;;6.65;6.22;;;;;;;;;;4989776;28;24417;-51
2021/08/11 12:12:31;;;;;;;6.30;5.90;;;;;;;;;;4989635;28;25042;-51
2021/08/11 12:15:16;;;;;;;6.50;6.10;;;;;;;;;;4989372;28;24456;-51
2021/08/11 12:17:42;;;;;;;6.40;5.97;;;;;;;;;;4989987;28;24400;-50
2021/08/11 12:20:23;;;;;;;6.60;6.20;;;;;;;;;;4989695;28;24393;-50
2021/08/11 12:22:48;;;;;;;7.25;6.80;;;;;;;;;;4989415;28;24388;-51
2021/08/11 12:25:23;;;;;;;6.35;5.95;;;;;;;;;;4989066;28;24424;-48
2021/08/11 12:28:04;;;;;;;7.75;7.25;;;;;;;;;;4989040;28;24425;-50
2021/08/11 12:30:30;;;;;;;6.80;6.40;;;;;;;;;;4988980;28;24429;-50
2021/08/11 12:32:56;;;;;;;6.40;6.00;;;;;;;;;;4989188;28;24779;-49
2021/08/11 12:35:21;;;;;;;7.80;7.30;;;;;;;;;;4988894;28;24440;-51
2021/08/11 12:37:47;;;;;;;7.03;6.53;;;;;;;;;;4989304;28;24428;-50
2021/08/11 12:40:26;;;;;;;7.43;6.83;;;;;;;;;;4981529;28;24429;-49
2021/08/11 12:42:52;;;;;;;7.65;7.15;;;;;;;;;;4972419;28;24417;-49
2021/08/11 12:45:18;;;;;;;6.87;6.47;;;;;;;;;;4989082;28;24536;-51
2021/08/11 12:47:43;;;;;;;6.70;6.30;;;;;;;;;;4988527;28;24724;-51
2021/08/11 12:50:15;;;;;;;7.00;6.50;;;;;;;;;;4988726;28;24413;-51
2021/08/11 12:52:50;;;;;;;7.25;6.85;;;;;;;;;;4988357;28;24436;-50
2021/08/11 12:55:28;;;;;;;7.60;7.20;;;;;;;;;;4988679;28;24990;-50
2021/08/11 12:57:54;;;;;;;7.10;6.70;;;;;;;;;;4988135;28;24524;-50
2021/08/11 13:00:36;;;;;;;7.43;6.93;;;;;;;;;;4988381;28;24567;-49
2021/08/11 13:03:01;;;;;;;6.38;5.97;;;;;;;;;;4988729;28;24755;-50
2021/08/11 13:05:26;;;;;;;7.00;6.60;;;;;;;;;;4988995;28;25144;-50
2021/08/11 13:07:53;;;;;;;6.82;6.43;;;;;;;;;;4988970;28;24404;-49
2021/08/11 13:10:18;;;;;;;7.85;7.40;;;;;;;;;;4988319;28;25037;-51
2021/08/11 13:12:44;;;;;;;7.55;7.05;;;;;;;;;;4988682;28;24507;-50
2021/08/11 13:15:39;;;;;;;7.63;7.07;;;;;;;;;;4988478;28;24409;-50
2021/08/11 13:18:05;;;;;;;6.78;6.28;;;;;;;;;;4967842;28;24504;-50
2021/08/11 13:20:32;;;;;;;8.38;7.88;;;;;;;;;;4988363;28;25031;-51
2021/08/11 13:23:01;;;;;;;7.30;6.80;;;;;;;;;;4988165;28;24420;-51
2021/08/11 13:25:26;;;;;;;7.90;7.40;;;;;;;;;;4988789;28;24405;-51
2021/08/11 13:27:52;;;;;;;8.70;8.10;;;;;;;;;;4988494;28;24415;-51
2021/08/11 13:30:20;;;;;;;8.90;8.38;;;;;;;;;;4988081;28;24405;-50
2021/08/11 13:32:46;;;;;;;7.93;7.43;;;;;;;;;;4987431;28;24451;-51
2021/08/11 13:35:11;;;;;;;7.97;7.47;;;;;;;;;;4988278;28;24413;-50
2021/08/11 13:37:37;;;;;;;8.30;7.80;;;;;;;;;;4988638;28;24393;-50
2021/08/11 13:40:03;;;;;;;7.83;7.33;;;;;;;;;;4988414;28;24400;-49
2021/08/11 13:42:28;;;;;;;7.30;6.90;;;;;;;;;;4987735;28;24440;-51
2021/08/11 13:44:54;;;;;;;7.80;7.30;;;;;;;;;;4988270;28;24389;-51
2021/08/11 13:47:21;;;;;;;7.00;6.50;;;;;;;;;;4988073;28;24756;-51
2021/08/11 13:49:46;;;;;;;6.03;5.72;;;;;;;;;;4988116;28;24412;-51
2021/08/11 13:52:12;;;;;;;7.30;6.90;;;;;;;;;;4987609;28;24421;-50
2021/08/11 13:54:37;;;;;;;7.20;6.80;;;;;;;;;;4988000;28;24436;-51
2021/08/11 13:57:02;;;;;;;7.20;6.80;;;;;;;;;;4988089;28;24930;-51
2021/08/11 13:59:27;;;;;;;7.60;7.20;;;;;;;;;;4987902;28;24586;-50
2021/08/11 14:01:52;;;;;;;8.15;7.55;;;;;;;;;;4987803;28;24389;-50
2021/08/11 14:04:17;;;;;;;7.70;7.20;;;;;;;;;;4987651;28;24459;-51
2021/08/11 14:06:43;;;;;;;8.25;7.75;;;;;;;;;;4988234;28;24451;-50
2021/08/11 14:09:08;;;;;;;7.97;7.47;;;;;;;;;;4986944;28;24397;-51
2021/08/11 14:11:33;;;;;;;8.00;7.40;;;;;;;;;;4987739;28;24491;-51
2021/08/11 14:13:58;;;;;;;7.20;6.70;;;;;;;;;;4987492;28;24458;-52
2021/08/11 14:16:23;;;;;;;6.40;6.10;;;;;;;;;;4987898;28;24596;-50
2021/08/11 14:18:49;;;;;;;6.63;6.23;;;;;;;;;;4987849;28;24919;-50
2021/08/11 14:21:14;;;;;;;6.50;6.10;;;;;;;;;;4987829;28;24849;-51
2021/08/11 14:23:39;;;;;;;6.90;6.50;;;;;;;;;;4970394;28;24459;-51
2021/08/11 14:26:04;;;;;;;6.80;6.30;;;;;;;;;;4987212;28;24443;-50
2021/08/11 14:28:30;;;;;;;6.60;6.20;;;;;;;;;;4987721;28;24401;-51
2021/08/11 14:30:55;;;;;;;6.43;6.03;;;;;;;;;;4987712;28;24946;-51
2021/08/11 14:33:20;;;;;;;6.80;6.40;;;;;;;;;;4987601;28;24475;-49
2021/08/11 14:35:45;;;;;;;6.60;6.20;;;;;;;;;;4987331;28;24780;-50
2021/08/11 14:38:10;;;;;;;6.30;5.80;;;;;;;;;;4987475;28;24828;-49
2021/08/11 14:40:35;;;;;;;5.93;5.43;;;;;;;;;;4982849;28;25025;-49
2021/08/11 14:43:01;;;;;;;6.40;5.90;;;;;;;;;;4966255;28;24400;-49